Time;durP1;ratioP1;P1;durP2;ratioP2;P2;SDS_P1;SDS_P2;PMS_P1;PMS_P2;Temp;Humidity;BMP_temperature;BMP_pressure;BME280_temperature;BME280_humidity;BME280_pressure;Samples;Min_cycle;Max_cycle;Signal;HPM_P1;HPM_P2
2023/08/22 00:00:03;;;;;;;8.57;4.35;;;;;;;20.36;66.89;101434.47;684948;28;1928;-79
2023/08/22 00:00:33;;;;;;;7.28;4.25;;;;;;;20.38;67.06;101451.25;682934;29;1053;-78
2023/08/22 00:00:53;;;;;;;9.13;4.25;;;;;;;20.32;66.96;101440.66;684863;28;1161;-80
2023/08/22 00:01:14;;;;;;;9.47;4.30;;;;;;;20.32;66.87;101446.84;686595;28;1352;-79
2023/08/22 00:01:36;;;;;;;9.60;4.28;;;;;;;20.30;66.93;101439.78;685231;28;1132;-78
2023/08/22 00:01:57;;;;;;;7.15;4.22;;;;;;;20.32;67.03;101451.25;683708;28;1093;-79
2023/08/22 00:02:18;;;;;;;6.65;4.20;;;;;;;20.31;66.92;101449.47;685242;28;1069;-79
2023/08/22 00:02:39;;;;;;;7.80;4.50;;;;;;;20.24;66.87;101444.19;681192;29;2013;-79
2023/08/22 00:03:00;;;;;;;7.65;4.45;;;;;;;20.30;67.03;101448.63;683868;28;1631;-79
2023/08/22 00:03:21;;;;;;;7.82;4.70;;;;;;;20.28;66.93;101442.41;691433;28;1489;-78
2023/08/22 00:04:10;;;;;;;7.40;4.68;;;;;;;20.33;67.04;101455.66;692786;28;1195;-78
2023/08/22 00:04:30;;;;;;;8.35;3.90;;;;;;;20.25;67.00;101430.06;690330;28;1463;-79
2023/08/22 00:04:51;;;;;;;7.47;4.03;;;;;;;20.22;67.22;101423.91;691401;28;1746;-78
2023/08/22 00:05:12;;;;;;;9.77;3.90;;;;;;;20.28;67.06;101439.75;688044;28;1541;-79
2023/08/22 00:05:32;;;;;;;9.65;4.18;;;;;;;20.32;67.16;101448.59;688496;28;1373;-79
2023/08/22 00:05:54;;;;;;;10.17;4.30;;;;;;;20.23;67.30;101417.72;688536;28;1176;-79
2023/08/22 00:06:15;;;;;;;8.50;4.35;;;;;;;20.25;67.25;101423.88;686309;28;1703;-79
2023/08/22 00:06:36;;;;;;;9.52;4.38;;;;;;;20.22;67.25;101419.47;688400;28;1593;-79
2023/08/22 00:06:56;;;;;;;9.95;4.40;;;;;;;20.25;67.18;101407.97;683074;29;1902;-79
2023/08/22 00:07:17;;;;;;;11.97;4.83;;;;;;;20.35;67.21;101430.06;686576;28;1386;-78
2023/08/22 00:07:39;;;;;;;10.77;4.77;;;;;;;20.34;67.30;101430.94;683622;28;1883;-79
2023/08/22 00:08:00;;;;;;;9.90;4.50;;;;;;;20.35;67.46;101422.09;683077;29;1096;-79
2023/08/22 00:08:20;;;;;;;8.13;4.32;;;;;;;20.30;67.36;101422.13;688101;28;1584;-79
2023/08/22 00:08:42;;;;;;;9.23;4.60;;;;;;;20.30;67.40;101415.91;690206;28;1389;-79
2023/08/22 00:09:05;;;;;;;9.27;4.70;;;;;;;20.30;67.34;101415.91;685741;28;1247;-79
2023/08/22 00:09:25;;;;;;;8.50;4.55;;;;;;;20.30;67.29;101416.81;684553;28;1608;-79
2023/08/22 00:09:46;;;;;;;8.80;4.60;;;;;;;20.30;67.29;101418.56;685575;28;1105;-79
2023/08/22 00:10:08;;;;;;;9.05;4.20;;;;;;;20.34;67.31;101430.94;680210;29;1101;-79
2023/08/22 00:10:29;;;;;;;8.95;4.18;;;;;;;20.32;67.22;101430.03;683267;29;1176;-79
2023/08/22 00:10:50;;;;;;;9.70;4.22;;;;;;;20.25;67.05;101426.53;682677;29;1115;-79
2023/08/22 00:11:10;;;;;;;10.73;4.72;;;;;;;20.26;67.18;101426.53;680420;29;1053;-79
2023/08/22 00:11:31;;;;;;;9.68;4.43;;;;;;;20.25;67.13;101429.19;679385;29;1403;-79
2023/08/22 00:11:52;;;;;;;10.95;4.28;;;;;;;20.21;67.21;101423.00;688707;28;1142;-79
2023/08/22 00:12:13;;;;;;;11.98;4.00;;;;;;;20.21;67.05;101428.31;684589;28;1564;-79
2023/08/22 00:12:34;;;;;;;13.03;4.23;;;;;;;20.13;67.17;101425.69;683340;28;1341;-79
2023/08/22 00:12:54;;;;;;;10.38;4.20;;;;;;;20.16;67.01;101427.41;682911;28;1518;-79
2023/08/22 00:13:15;;;;;;;7.85;4.45;;;;;;;20.17;67.13;101434.50;685806;28;1149;-79
2023/08/22 00:13:36;;;;;;;7.17;4.40;;;;;;;20.11;67.19;101432.72;690979;28;1238;-79
2023/08/22 00:13:56;;;;;;;8.15;4.40;;;;;;;20.08;66.98;101426.56;688165;28;964;-79
2023/08/22 00:14:25;;;;;;;10.93;4.80;;;;;;;20.06;66.91;101423.03;688256;28;1080;-79
2023/08/22 00:14:46;;;;;;;10.15;4.80;;;;;;;20.09;66.96;101423.00;690125;28;1200;-79
2023/08/22 00:15:10;;;;;;;8.65;4.90;;;;;;;20.07;67.15;101422.13;685783;28;1159;-80
2023/08/22 00:15:30;;;;;;;8.55;4.88;;;;;;;20.11;67.08;101432.72;685676;28;1010;-79
2023/08/22 00:15:51;;;;;;;8.85;4.80;;;;;;;20.09;67.18;101429.22;689908;28;1723;-79
2023/08/22 00:16:12;;;;;;;8.18;4.45;;;;;;;20.12;67.19;101430.97;693253;28;1144;-79
2023/08/22 00:16:33;;;;;;;7.77;4.13;;;;;;;20.08;67.38;101415.94;688409;28;1216;-79
2023/08/22 00:16:53;;;;;;;7.43;4.32;;;;;;;20.13;67.28;101424.78;684654;28;1972;-79
2023/08/22 00:17:14;;;;;;;8.48;4.53;;;;;;;20.16;67.24;101430.06;684890;28;1037;-79
2023/08/22 00:17:39;;;;;;;8.97;4.80;;;;;;;20.12;67.32;101421.25;691306;28;1217;-79
2023/08/22 00:18:00;;;;;;;8.63;4.68;;;;;;;20.12;67.36;101420.38;685764;28;1786;-79
2023/08/22 00:18:20;;;;;;;8.50;4.50;;;;;;;20.07;67.52;101415.09;685297;28;1210;-79
2023/08/22 00:18:41;;;;;;;8.88;4.75;;;;;;;20.12;67.41;101417.72;685453;28;1191;-78
2023/08/22 00:19:02;;;;;;;9.67;4.80;;;;;;;20.09;67.48;101407.13;677057;29;1584;-79
2023/08/22 00:19:23;;;;;;;9.05;4.97;;;;;;;20.21;67.32;101432.72;678624;29;1099;-78
2023/08/22 00:19:45;;;;;;;8.60;4.75;;;;;;;20.11;67.31;101415.97;677377;29;1290;-78
2023/08/22 00:20:08;;;;;;;8.07;4.65;;;;;;;20.05;67.30;101414.22;679868;29;1638;-78
2023/08/22 00:20:28;;;;;;;8.27;5.05;;;;;;;20.05;67.29;101415.97;679429;29;1518;-79
2023/08/22 00:20:49;;;;;;;8.10;4.88;;;;;;;20.06;67.22;101413.31;679966;29;1077;-79
2023/08/22 00:21:10;;;;;;;16.83;4.63;;;;;;;20.09;67.41;101423.00;682183;29;1321;-79
2023/08/22 00:21:30;;;;;;;16.00;4.00;;;;;;;20.11;67.31;101429.22;687988;28;1667;-79
2023/08/22 00:21:52;;;;;;;16.13;3.90;;;;;;;20.06;67.22;101423.03;685445;28;969;-78
2023/08/22 00:22:13;;;;;;;8.30;4.20;;;;;;;20.05;67.21;101416.88;685044;28;1201;-79
2023/08/22 00:22:37;;;;;;;8.93;4.53;;;;;;;20.00;67.41;101414.19;682471;29;1640;-79
2023/08/22 00:22:58;;;;;;;9.63;4.63;;;;;;;20.09;67.31;101428.31;682018;29;1633;-79
2023/08/22 00:23:18;;;;;;;8.70;4.70;;;;;;;20.07;67.34;101422.13;685325;28;1253;-78
2023/08/22 00:23:39;;;;;;;7.17;4.53;;;;;;;20.09;67.48;101429.22;683175;29;1054;-79
2023/08/22 00:24:00;;;;;;;7.53;4.40;;;;;;;20.06;67.30;101417.72;687695;28;1165;-79
2023/08/22 00:24:23;;;;;;;7.45;4.30;;;;;;;20.05;67.48;101421.28;684442;28;1651;-80
2023/08/22 00:24:44;;;;;;;6.97;4.20;;;;;;;20.02;67.44;101408.91;685576;28;1113;-79
2023/08/22 00:25:05;;;;;;;7.35;4.32;;;;;;;20.09;67.60;101423.00;690016;28;1270;-78
2023/08/22 00:25:26;;;;;;;7.05;4.10;;;;;;;20.03;67.52;101417.75;690728;28;1772;-79
2023/08/22 00:25:47;;;;;;;6.28;3.95;;;;;;;20.06;67.61;101410.69;687201;28;1081;-79
2023/08/22 00:26:08;;;;;;;7.60;4.30;;;;;;;20.05;67.55;101418.63;688280;28;1156;-79
2023/08/22 00:26:57;;;;;;;8.48;4.60;;;;;;;20.06;67.91;101428.31;690263;28;1370;-79
2023/08/22 00:27:18;;;;;;;10.07;4.60;;;;;;;19.96;68.16;101422.16;687807;28;1120;-78
2023/08/22 00:27:38;;;;;;;8.53;4.70;;;;;;;19.88;68.29;101419.53;686182;28;1617;-79
2023/08/22 00:28:00;;;;;;;8.13;4.40;;;;;;;19.88;68.43;101414.22;680106;28;1220;-79
2023/08/22 00:28:22;;;;;;;7.50;4.60;;;;;;;19.83;68.54;101416.84;682639;29;1040;-79
2023/08/22 00:28:42;;;;;;;10.80;4.78;;;;;;;19.84;68.61;101412.41;683607;28;1357;-78
2023/08/22 00:29:03;;;;;;;9.63;4.43;;;;;;;19.85;68.50;101423.00;682371;28;1521;-79
2023/08/22 00:29:24;;;;;;;9.30;4.40;;;;;;;19.86;68.65;101415.97;688140;28;1020;-79
2023/08/22 00:29:44;;;;;;;7.57;4.43;;;;;;;19.85;68.55;101420.38;687724;28;1177;-78
2023/08/22 00:30:06;;;;;;;8.70;4.87;;;;;;;19.82;68.68;101409.78;685443;28;1279;-80
2023/08/22 00:30:27;;;;;;;8.45;4.70;;;;;;;19.77;68.60;101403.59;681145;28;1353;-80
2023/08/22 00:30:47;;;;;;;10.73;4.67;;;;;;;19.84;68.75;101415.97;679718;29;1066;-80
2023/08/22 00:31:14;;;;;;;12.40;4.40;;;;;;;19.81;68.74;101408.03;682734;28;1640;-80
2023/08/22 00:31:36;;;;;;;11.63;4.68;;;;;;;19.79;68.78;101408.91;685526;28;1101;-81
2023/08/22 00:31:59;;;;;;;6.85;4.45;;;;;;;19.85;68.86;101419.47;687596;28;1805;-79
2023/08/22 00:32:20;;;;;;;8.73;4.82;;;;;;;19.85;68.70;101419.47;693172;28;1454;-80
2023/08/22 00:32:41;;;;;;;9.93;4.50;;;;;;;19.81;68.89;101407.13;686917;28;1091;-79
2023/08/22 00:33:02;;;;;;;9.88;4.60;;;;;;;19.84;68.79;101417.72;680201;29;1848;-80
2023/08/22 00:33:23;;;;;;;8.80;4.70;;;;;;;19.80;68.91;101406.22;686281;28;1493;-79
2023/08/22 00:33:44;;;;;;;7.87;5.20;;;;;;;19.81;68.77;101413.31;688076;28;1107;-80
2023/08/22 00:34:04;;;;;;;7.22;5.15;;;;;;;19.80;68.72;101405.38;682658;29;1148;-80
2023/08/22 00:34:25;;;;;;;8.67;5.20;;;;;;;19.79;68.82;101403.59;688564;28;2435;-80
2023/08/22 00:34:46;;;;;;;10.27;5.10;;;;;;;19.81;68.76;101412.44;686765;28;1194;-80
2023/08/22 00:35:07;;;;;;;17.98;5.25;;;;;;;19.78;68.85;101409.78;690441;28;2566;-80
2023/08/22 00:35:28;;;;;;;16.30;4.93;;;;;;;19.75;68.68;101408.03;681780;28;2271;-79
2023/08/22 00:35:49;;;;;;;14.45;4.63;;;;;;;19.77;68.87;101405.34;684352;28;1222;-79
2023/08/22 00:36:10;;;;;;;7.70;4.63;;;;;;;19.79;69.01;101411.56;684519;28;2593;-79
2023/08/22 00:36:31;;;;;;;7.70;4.83;;;;;;;19.73;68.80;101400.06;684466;28;1395;-79
2023/08/22 00:36:52;;;;;;;7.87;4.93;;;;;;;19.78;68.75;101407.16;682281;29;1163;-79
2023/08/22 00:37:12;;;;;;;7.47;4.82;;;;;;;19.71;68.83;101404.50;687427;28;1109;-80
2023/08/22 00:37:33;;;;;;;7.25;4.60;;;;;;;19.75;68.99;101402.72;687498;28;1848;-80
2023/08/22 00:37:54;;;;;;;8.23;4.90;;;;;;;19.77;68.70;101400.06;685222;28;886;-79
2023/08/22 00:38:15;;;;;;;8.55;4.90;;;;;;;19.87;68.64;101401.84;679918;29;1533;-80
2023/08/22 00:38:36;;;;;;;9.60;4.97;;;;;;;19.94;68.51;101406.28;684424;28;1783;-79
2023/08/22 00:38:57;;;;;;;9.93;4.63;;;;;;;19.89;68.46;101410.69;689992;28;1223;-80
2023/08/22 00:39:20;;;;;;;9.80;4.70;;;;;;;19.74;68.57;101395.66;679423;29;1430;-79
2023/08/22 00:39:41;;;;;;;10.90;4.40;;;;;;;19.82;68.48;101412.44;681386;29;1046;-80
2023/08/22 00:40:03;;;;;;;10.32;4.45;;;;;;;19.81;68.65;101412.44;685149;28;1096;-80
2023/08/22 00:40:23;;;;;;;10.82;4.60;;;;;;;19.77;68.89;101405.34;686928;28;1086;-79
2023/08/22 00:40:45;;;;;;;10.60;4.50;;;;;;;19.72;68.79;101403.59;684296;28;1500;-80
2023/08/22 00:41:08;;;;;;;11.67;4.63;;;;;;;19.71;68.75;101398.28;680036;29;1147;-80
2023/08/22 00:41:29;;;;;;;14.00;4.70;;;;;;;19.75;68.80;101401.81;682605;29;1280;-79
2023/08/22 00:41:55;;;;;;;11.70;4.83;;;;;;;19.75;68.71;101393.88;684042;28;1556;-80
2023/08/22 00:42:15;;;;;;;9.98;4.97;;;;;;;19.77;68.63;101405.34;685243;28;1059;-79
2023/08/22 00:42:36;;;;;;;8.73;4.93;;;;;;;19.72;68.76;101397.41;683633;28;1236;-80
2023/08/22 00:42:57;;;;;;;8.05;4.53;;;;;;;19.73;68.58;101404.47;684121;28;1786;-80
2023/08/22 00:43:17;;;;;;;9.10;4.60;;;;;;;19.72;68.76;101403.59;682422;28;1105;-80
2023/08/22 00:43:38;;;;;;;10.13;4.60;;;;;;;19.62;68.70;101387.72;681127;29;1237;-80
2023/08/22 00:43:59;;;;;;;10.93;4.85;;;;;;;19.73;68.56;101402.72;680893;29;1824;-80
2023/08/22 00:44:20;;;;;;;9.93;4.85;;;;;;;19.68;68.72;101403.59;678989;29;1274;-80
2023/08/22 00:44:41;;;;;;;9.20;4.80;;;;;;;19.70;68.67;101404.47;685265;28;1049;-80
2023/08/22 00:45:01;;;;;;;7.90;4.40;;;;;;;19.68;68.55;101396.53;687640;28;1391;-80
2023/08/22 00:45:25;;;;;;;8.43;4.57;;;;;;;19.75;68.18;101388.59;687833;28;954;-79
2023/08/22 00:45:45;;;;;;;9.18;4.93;;;;;;;19.83;67.87;101406.25;692260;28;1513;-79
2023/08/22 00:46:08;;;;;;;12.10;5.60;;;;;;;19.82;68.03;101406.25;693848;28;1442;-80
2023/08/22 00:46:30;;;;;;;10.55;5.40;;;;;;;19.78;67.82;101391.25;685230;28;1106;-79
2023/08/22 00:46:51;;;;;;;16.00;5.13;;;;;;;19.80;67.77;101389.47;687712;28;1972;-80
2023/08/22 00:47:13;;;;;;;14.88;4.85;;;;;;;19.77;67.87;101390.34;687534;28;1406;-80
2023/08/22 00:47:34;;;;;;;14.48;4.65;;;;;;;19.78;67.85;101385.97;687761;28;1436;-80
2023/08/22 00:47:55;;;;;;;7.95;4.57;;;;;;;19.79;67.63;101398.31;686036;28;1289;-80
2023/08/22 00:48:15;;;;;;;12.82;4.60;;;;;;;19.78;67.80;101389.47;682196;29;1461;-80
2023/08/22 00:48:36;;;;;;;13.60;4.90;;;;;;;19.72;67.73;101387.72;679257;29;1162;-79
2023/08/22 00:48:57;;;;;;;12.93;5.05;;;;;;;19.73;67.77;101381.53;676933;29;1455;-80
2023/08/22 00:49:19;;;;;;;7.53;5.00;;;;;;;19.74;67.72;101395.66;681032;29;1420;-79
2023/08/22 00:49:40;;;;;;;7.63;5.07;;;;;;;19.75;67.55;101393.88;679435;29;1961;-80
2023/08/22 00:50:04;;;;;;;7.97;4.90;;;;;;;19.75;67.67;101383.28;684231;28;1088;-80
2023/08/22 00:50:26;;;;;;;7.90;4.75;;;;;;;19.77;67.74;101384.16;689728;28;1765;-80
2023/08/22 00:50:46;;;;;;;7.30;4.40;;;;;;;19.76;67.63;101382.41;687259;28;1129;-80
2023/08/22 00:51:07;;;;;;;8.88;4.72;;;;;;;19.73;67.85;101394.78;687446;28;1163;-79
2023/08/22 00:51:28;;;;;;;11.70;4.70;;;;;;;19.66;68.07;101392.13;685842;28;1770;-80
2023/08/22 00:51:48;;;;;;;13.53;5.00;;;;;;;19.66;68.15;101393.00;684751;28;1208;-77
2023/08/22 00:52:09;;;;;;;12.32;5.20;;;;;;;19.62;68.40;101391.25;685079;28;1550;-77
2023/08/22 00:52:31;;;;;;;9.77;5.47;;;;;;;19.64;68.39;101392.13;687551;28;1335;-80
2023/08/22 00:52:52;;;;;;;8.00;5.45;;;;;;;19.57;68.40;101382.41;685225;28;1061;-80
2023/08/22 00:53:13;;;;;;;9.90;5.20;;;;;;;19.61;68.70;101392.09;686480;28;1059;-80
2023/08/22 00:53:34;;;;;;;12.53;5.30;;;;;;;19.55;68.50;101384.19;684968;28;1081;-80
2023/08/22 00:53:55;;;;;;;13.10;5.45;;;;;;;19.64;68.55;101401.81;684124;28;1231;-79
2023/08/22 00:54:18;;;;;;;11.88;5.32;;;;;;;19.68;68.84;101408.91;682112;29;1236;-80
2023/08/22 00:54:41;;;;;;;8.75;4.95;;;;;;;19.55;68.87;101381.53;683335;28;1449;-78
2023/08/22 00:55:01;;;;;;;10.88;4.93;;;;;;;19.60;68.92;101385.06;680618;29;1700;-80
2023/08/22 00:55:22;;;;;;;10.37;5.10;;;;;;;19.58;68.92;101384.19;690515;28;1221;-78
2023/08/22 00:55:43;;;;;;;9.48;4.82;;;;;;;19.55;68.90;101385.06;689332;28;1684;-78
2023/08/22 00:56:04;;;;;;;7.88;4.82;;;;;;;19.58;68.81;101387.72;687819;28;1168;-78
2023/08/22 00:56:25;;;;;;;10.65;5.18;;;;;;;19.62;68.87;101395.66;689228;28;1116;-79
2023/08/22 00:56:46;;;;;;;11.45;5.22;;;;;;;19.61;68.97;101392.09;684412;28;1209;-78
2023/08/22 00:57:07;;;;;;;12.70;5.20;;;;;;;19.50;68.83;101375.34;687732;28;1374;-79
2023/08/22 00:57:28;;;;;;;10.85;5.10;;;;;;;19.64;68.76;101384.19;690717;28;1465;-79
2023/08/22 00:57:49;;;;;;;11.27;5.27;;;;;;;19.66;68.79;101382.41;690423;28;1080;-79
2023/08/22 00:58:10;;;;;;;8.90;5.13;;;;;;;19.74;68.45;101382.44;682092;28;1622;-79
2023/08/22 00:58:32;;;;;;;12.80;5.80;;;;;;;19.77;68.50;101385.06;687736;28;1225;-79
2023/08/22 00:58:53;;;;;;;14.10;5.72;;;;;;;19.76;68.23;101378.00;692491;28;1148;-78
2023/08/22 00:59:14;;;;;;;15.95;5.95;;;;;;;19.79;68.29;101383.28;692514;28;1408;-79
2023/08/22 00:59:35;;;;;;;14.57;5.40;;;;;;;19.73;68.17;101368.28;693876;28;920;-79
2023/08/22 00:59:57;;;;;;;15.60;5.80;;;;;;;19.80;68.29;101378.88;687961;28;1624;-79
2023/08/22 01:00:18;;;;;;;15.63;6.05;;;;;;;19.79;68.11;101371.81;686371;28;1408;-79
2023/08/22 01:00:39;;;;;;;13.00;6.10;;;;;;;19.78;67.97;101370.06;690644;28;913;-79
2023/08/22 01:00:59;;;;;;;9.88;5.80;;;;;;;19.79;67.86;101377.13;689321;28;1365;-79
2023/08/22 01:01:20;;;;;;;9.10;5.50;;;;;;;19.77;67.89;101378.88;689301;28;1738;-79
2023/08/22 01:01:41;;;;;;;9.23;5.60;;;;;;;19.85;67.91;101385.94;685254;28;1053;-79
2023/08/22 01:02:02;;;;;;;9.00;5.40;;;;;;;19.76;67.85;101372.72;682652;28;1193;-78
2023/08/22 01:02:23;;;;;;;8.13;5.10;;;;;;;19.76;67.95;101374.47;684102;28;1489;-79
2023/08/22 01:02:44;;;;;;;7.45;4.60;;;;;;;19.84;67.82;101385.94;687742;28;1208;-78
2023/08/22 01:03:06;;;;;;;7.65;4.88;;;;;;;19.81;67.93;101383.28;685153;28;1360;-79
2023/08/22 01:03:27;;;;;;;7.57;5.40;;;;;;;19.75;67.86;101370.06;681870;28;1518;-79
2023/08/22 01:03:47;;;;;;;9.55;5.57;;;;;;;19.73;67.86;101370.03;690332;28;1108;-79
2023/08/22 01:04:08;;;;;;;9.65;5.53;;;;;;;19.76;67.81;101371.81;690343;28;1667;-79
2023/08/22 01:04:29;;;;;;;8.82;5.35;;;;;;;19.77;68.04;101373.56;684815;28;1522;-79
2023/08/22 01:04:50;;;;;;;9.20;5.63;;;;;;;19.73;67.98;101370.94;685001;28;1093;-79
2023/08/22 01:05:11;;;;;;;11.02;5.70;;;;;;;19.69;68.18;101370.94;687415;28;1251;-79
2023/08/22 01:05:37;;;;;;;11.33;5.50;;;;;;;19.77;67.75;101374.47;685784;28;1649;-79
2023/08/22 01:06:04;;;;;;;12.97;5.30;;;;;;;19.73;67.86;101373.59;684857;28;1264;-79
2023/08/22 01:06:49;;;;;;;11.15;5.20;;;;;;;19.78;67.91;101375.38;686199;28;1158;-79
2023/08/22 01:07:19;;;;;;;11.40;4.95;;;;;;;19.76;67.86;101369.16;688901;28;1507;-79
2023/08/22 01:07:49;;;;;;;13.52;5.32;;;;;;;19.68;67.78;101367.41;687591;28;1830;-79
2023/08/22 01:08:17;;;;;;;10.85;5.70;;;;;;;19.64;67.85;101363.00;686391;28;1034;-79
2023/08/22 01:08:43;;;;;;;6.57;5.03;;;;;;;19.62;67.96;101370.06;686620;28;1392;-79
2023/08/22 01:09:52;;;;;;;6.45;4.85;;;;;;;19.66;67.97;101382.41;685076;28;1510;-79
2023/08/22 01:10:24;;;;;;;12.13;5.50;;;;;;;19.58;67.89;101373.59;677345;28;1241;-79
2023/08/22 01:10:50;;;;;;;10.00;5.25;;;;;;;19.51;67.93;101372.72;689205;28;1103;-78
2023/08/22 01:11:20;;;;;;;9.68;5.20;;;;;;;19.50;68.07;101359.47;684923;28;1269;-79
2023/08/22 01:11:46;;;;;;;10.63;5.40;;;;;;;19.52;68.17;101373.59;686420;28;1364;-79
2023/08/22 01:12:17;;;;;;;8.88;5.40;;;;;;;19.43;68.15;101353.31;685003;28;1528;-79
2023/08/22 01:12:53;;;;;;;7.82;5.32;;;;;;;19.39;68.25;101357.72;687519;28;1788;-79
2023/08/22 01:13:22;;;;;;;8.73;5.68;;;;;;;19.39;68.17;101363.00;687348;28;2011;-79
2023/08/22 01:13:47;;;;;;;8.50;5.82;;;;;;;19.40;68.25;101363.88;689415;28;1079;-79
2023/08/22 01:14:11;;;;;;;8.15;5.78;;;;;;;19.41;68.29;101368.28;686442;28;1248;-79
2023/08/22 01:14:36;;;;;;;8.38;5.43;;;;;;;19.35;68.31;101361.22;689883;28;1274;-79
2023/08/22 01:15:08;;;;;;;10.63;5.57;;;;;;;19.38;68.24;101371.84;687812;28;1352;-79
2023/08/22 01:15:33;;;;;;;17.50;6.15;;;;;;;19.37;68.36;101364.75;687440;28;1770;-79
2023/08/22 01:15:55;;;;;;;18.70;5.85;;;;;;;19.39;68.34;101373.59;680349;29;1242;-79
2023/08/22 01:16:17;;;;;;;11.88;5.35;;;;;;;19.36;68.49;101368.28;679462;29;1832;-79
2023/08/22 01:16:39;;;;;;;12.27;5.47;;;;;;;19.38;68.50;101370.94;686905;28;1155;-79
2023/08/22 01:17:00;;;;;;;9.27;5.55;;;;;;;19.31;68.35;101359.47;687586;28;1130;-80
2023/08/22 01:17:22;;;;;;;8.95;5.70;;;;;;;19.39;68.47;101372.69;690218;28;1268;-79
2023/08/22 01:17:43;;;;;;;9.40;5.78;;;;;;;19.34;68.57;101363.88;685248;28;1045;-79
2023/08/22 01:18:05;;;;;;;12.52;6.07;;;;;;;19.40;68.70;101374.47;685111;28;1128;-79
2023/08/22 01:18:27;;;;;;;13.27;6.03;;;;;;;19.35;68.75;101361.22;687764;28;1745;-79
2023/08/22 01:18:48;;;;;;;11.18;6.10;;;;;;;19.41;68.60;101371.81;690390;28;1127;-79
2023/08/22 01:19:13;;;;;;;7.75;5.70;;;;;;;19.36;68.67;101357.69;687682;28;1154;-79
2023/08/22 01:19:34;;;;;;;9.95;5.78;;;;;;;19.43;68.60;101369.19;684948;28;1441;-79
2023/08/22 01:19:54;;;;;;;9.85;5.85;;;;;;;19.45;68.70;101370.06;685051;28;985;-79
2023/08/22 01:20:16;;;;;;;10.60;6.10;;;;;;;19.43;68.76;101367.41;685010;28;1148;-78
2023/08/22 01:20:37;;;;;;;10.38;6.30;;;;;;;19.48;68.67;101366.53;687424;28;1539;-79
2023/08/22 01:21:04;;;;;;;10.93;6.05;;;;;;;19.45;68.48;101365.66;685031;28;1129;-79
2023/08/22 01:21:25;;;;;;;10.02;5.78;;;;;;;19.44;68.74;101355.06;687542;28;1403;-79
2023/08/22 01:21:54;;;;;;;8.77;5.60;;;;;;;19.52;68.74;101373.59;688731;28;1513;-79
2023/08/22 01:22:15;;;;;;;6.63;5.30;;;;;;;19.45;68.71;101363.03;690760;28;1074;-79
2023/08/22 01:22:37;;;;;;;8.30;5.70;;;;;;;19.43;68.85;101362.13;685084;28;1167;-79
2023/08/22 01:22:58;;;;;;;10.65;6.00;;;;;;;19.52;68.84;101369.19;690031;28;1934;-79
2023/08/22 01:23:18;;;;;;;11.52;6.25;;;;;;;19.47;68.82;101370.06;684984;28;1076;-79
2023/08/22 01:23:39;;;;;;;11.95;6.30;;;;;;;19.45;68.81;101363.03;682690;29;1155;-79
2023/08/22 01:24:00;;;;;;;9.53;5.80;;;;;;;19.43;68.76;101358.59;687582;28;1333;-78
2023/08/22 01:24:22;;;;;;;11.50;5.70;;;;;;;19.49;68.84;101368.31;687475;28;1201;-78
2023/08/22 01:24:42;;;;;;;12.60;5.75;;;;;;;19.42;68.73;101363.00;689201;28;1370;-78
2023/08/22 01:25:05;;;;;;;14.70;6.10;;;;;;;19.48;68.70;101366.53;690423;28;1073;-78
2023/08/22 01:25:29;;;;;;;12.38;6.00;;;;;;;19.52;68.71;101378.88;680726;29;1492;-79
2023/08/22 01:25:50;;;;;;;12.48;5.93;;;;;;;19.47;68.78;101372.72;686991;28;1077;-78
2023/08/22 01:26:11;;;;;;;13.27;5.70;;;;;;;19.45;68.69;101368.31;685929;28;1793;-78
2023/08/22 01:26:32;;;;;;;13.27;6.10;;;;;;;19.47;68.61;101375.38;690262;28;1203;-79
2023/08/22 01:26:53;;;;;;;10.10;6.37;;;;;;;19.41;68.85;101365.63;684867;28;2009;-78
2023/08/22 01:27:14;;;;;;;9.52;6.32;;;;;;;19.45;68.66;101373.59;679321;29;1173;-78
2023/08/22 01:28:02;;;;;;;11.32;6.00;;;;;;;19.47;68.70;101373.59;677733;29;1099;-78
2023/08/22 01:28:33;;;;;;;11.65;6.07;;;;;;;19.37;68.90;101369.19;684861;28;1313;-78
2023/08/22 01:29:03;;;;;;;10.23;6.50;;;;;;;19.43;68.81;101375.34;682380;29;976;-78
2023/08/22 01:29:32;;;;;;;9.50;6.45;;;;;;;19.35;69.02;101363.88;679226;29;1571;-78
2023/08/22 01:30:04;;;;;;;9.65;6.10;;;;;;;19.37;68.74;101361.25;683187;28;1205;-79
2023/08/22 01:30:35;;;;;;;10.82;6.50;;;;;;;19.34;68.98;101359.47;685625;28;1647;-79
2023/08/22 01:31:07;;;;;;;10.18;6.50;;;;;;;19.43;68.94;101374.47;684496;28;1219;-78
2023/08/22 01:32:04;;;;;;;9.10;5.93;;;;;;;19.36;68.76;101356.84;683775;28;1871;-79
2023/08/22 01:32:34;;;;;;;17.15;6.75;;;;;;;19.31;68.98;101352.41;689738;28;1780;-79
2023/08/22 01:33:03;;;;;;;12.15;5.80;;;;;;;19.30;68.96;101358.59;689934;28;1083;-79
2023/08/22 01:33:33;;;;;;;9.88;5.80;;;;;;;19.37;68.82;101370.03;694665;28;1139;-79
2023/08/22 01:34:01;;;;;;;8.75;5.70;;;;;;;19.39;68.80;101370.94;691386;28;1036;-78
2023/08/22 01:34:30;;;;;;;8.68;5.70;;;;;;;19.35;68.86;101361.22;681628;28;1543;-78
2023/08/22 01:34:56;;;;;;;13.55;6.13;;;;;;;19.29;68.85;101362.13;688330;28;1587;-79
2023/08/22 01:35:21;;;;;;;12.30;5.57;;;;;;;19.31;69.00;101359.47;686858;28;1320;-78
2023/08/22 01:35:47;;;;;;;11.30;5.70;;;;;;;19.30;68.80;101365.66;686008;28;1511;-78
2023/08/22 01:36:10;;;;;;;12.00;6.25;;;;;;;19.28;68.87;101351.50;681362;29;1310;-78
2023/08/22 01:36:31;;;;;;;13.68;6.35;;;;;;;19.34;68.75;101361.22;684898;28;1231;-79
2023/08/22 01:36:56;;;;;;;11.80;6.25;;;;;;;19.26;68.78;101355.94;685356;28;1876;-78
2023/08/22 01:37:20;;;;;;;11.52;6.03;;;;;;;19.39;68.83;101370.94;684913;28;1787;-78
2023/08/22 01:37:41;;;;;;;9.65;6.20;;;;;;;19.29;68.89;101353.28;688347;28;1208;-78
2023/08/22 01:38:03;;;;;;;9.02;6.38;;;;;;;19.35;68.82;101365.66;681701;28;1477;-78
2023/08/22 01:38:27;;;;;;;9.65;6.38;;;;;;;19.33;68.78;101360.34;687593;28;1117;-78
2023/08/22 01:38:49;;;;;;;16.13;6.70;;;;;;;19.42;68.80;101378.88;687337;28;1235;-78
2023/08/22 01:39:14;;;;;;;17.70;6.80;;;;;;;19.36;68.92;101362.13;686628;28;1832;-78
2023/08/22 01:39:37;;;;;;;13.45;6.43;;;;;;;19.41;69.02;101374.47;692308;28;1423;-78
2023/08/22 01:40:04;;;;;;;13.60;6.75;;;;;;;19.40;68.96;101370.06;684946;28;1924;-78
2023/08/22 01:40:26;;;;;;;11.38;6.35;;;;;;;19.43;68.95;101363.91;683745;28;1669;-78
2023/08/22 01:40:48;;;;;;;9.65;6.20;;;;;;;19.40;68.75;101359.47;687001;28;1713;-78
2023/08/22 01:41:09;;;;;;;10.65;6.45;;;;;;;19.45;68.95;101367.41;683885;28;1032;-78
2023/08/22 01:41:30;;;;;;;12.27;7.05;;;;;;;19.40;68.77;101354.19;687794;28;1060;-78
2023/08/22 01:41:52;;;;;;;11.93;7.00;;;;;;;19.43;68.87;101359.47;682210;29;1165;-78
2023/08/22 01:42:13;;;;;;;10.65;6.82;;;;;;;19.50;68.84;101368.31;683995;28;1507;-79
2023/08/22 01:42:33;;;;;;;9.32;6.65;;;;;;;19.52;68.98;101363.00;677783;29;1846;-78
2023/08/22 01:42:56;;;;;;;11.45;6.80;;;;;;;19.52;69.00;101363.00;684950;28;1072;-78
2023/08/22 01:43:18;;;;;;;11.65;6.88;;;;;;;19.52;68.83;101363.00;684499;28;1575;-78
2023/08/22 01:43:42;;;;;;;12.60;6.90;;;;;;;19.50;68.97;101359.47;683833;28;1197;-79
2023/08/22 01:44:06;;;;;;;12.52;6.80;;;;;;;19.52;69.03;101357.69;687643;28;1705;-79
2023/08/22 01:44:28;;;;;;;10.98;6.65;;;;;;;19.57;68.90;101367.44;682088;29;1447;-79
2023/08/22 01:44:49;;;;;;;8.50;6.20;;;;;;;19.53;68.88;101359.47;689980;28;1344;-79
2023/08/22 01:45:10;;;;;;;8.73;6.33;;;;;;;19.55;68.84;101363.00;679530;29;1558;-78
2023/08/22 01:45:31;;;;;;;10.00;6.60;;;;;;;19.54;69.14;101358.59;682071;28;1427;-79
2023/08/22 01:45:51;;;;;;;10.70;6.95;;;;;;;19.49;69.04;101341.84;684051;28;1268;-79
2023/08/22 01:46:12;;;;;;;11.85;6.85;;;;;;;19.60;68.75;101366.53;689543;28;1210;-79
2023/08/22 01:46:33;;;;;;;12.50;6.70;;;;;;;19.51;68.94;101345.34;686160;28;1718;-79
2023/08/22 01:46:53;;;;;;;14.70;6.90;;;;;;;19.56;68.67;101360.34;678261;29;1916;-79
2023/08/22 01:47:14;;;;;;;12.30;6.65;;;;;;;19.55;68.94;101357.72;686888;28;1793;-78
2023/08/22 01:47:35;;;;;;;10.63;6.50;;;;;;;19.57;69.11;101361.25;685694;28;1101;-78
2023/08/22 01:47:56;;;;;;;9.05;6.00;;;;;;;19.56;68.97;101362.13;688739;28;982;-79
2023/08/22 01:48:16;;;;;;;12.57;6.17;;;;;;;19.54;68.94;101361.25;682061;28;1230;-79
2023/08/22 01:48:37;;;;;;;12.57;6.23;;;;;;;19.56;68.79;101349.75;679124;29;1879;-79